Terminal Aerodrome Forecast
Issued by NWS

Home | Current Version | Previous Version | Text Only | Print | Product List | Glossary On
Versions: 1 2 3 4 5 6 7 8 9 10 11 12 13 14
000
FTUS46 KPDT 190100 AAA
TAFYKM
TAF AMD
KYKM 190138Z 1902/1924 31015G25KT P6SM SCT080 BKN100
     FM190600 27006KT P6SM FEW090 SCT120
     FM191500 VRB05KT P6SM SCT120=

USA.gov is the U.S. government's official web portal to all federal, state and local government web resources and services.